Ely Municipal Airport
KELO : now visible

Airfield :











YOU CAN JOIN US ON...

 
LOGIN :

Register | Disclaimer

   EN    FR    IT 

 









Legend :    VFR   Marginal VFR   IFR   Intensive IFR   Very Intensive IFR
Visi :
Ceiling :
>= 8 km
>= 3000ft
5 to 8 km
1000 to 3000 ft
1500m to 5 km
500 to 1000 ft
800 to 1500m
200 to 500 ft
< 800m
< 200 ft
Symbols :   Thunderstorms  Fog  Heavy snow  Heavy precipitations  Wind > 20 kt






- Airport Elevation : 1456 ft


KELO - Ely Municipal

CURRENT METAR :
  • 021935Z AUTO 29006G10KT 10SM SCT075 24/08 A3008 RMK AO2

EXPIRED METARs :
  • 021915Z AUTO 29008G15KT 10SM SCT065 25/07 A3008 RMK AO2
  • 021855Z AUTO 32007G14KT 280V340 10SM BKN065 25/08 A3009 RMK AO2
  • 021835Z AUTO 26006KT 10SM SCT065 SCT075 25/08 A3009 RMK AO2
  • 021815Z AUTO 25004G14KT 10SM SCT060 SCT075 24/08 A3010 RMK AO2
  • 021755Z AUTO 31005G15KT 10SM CLR 24/08 A3011 RMK AO2
  • 021735Z AUTO 35005G09KT 10SM CLR 24/08 A3011 RMK AO2
  • 021715Z AUTO 28009G14KT 10SM CLR 24/09 A3012 RMK AO2
  • 021655Z AUTO 30006KT 10SM CLR 23/09 A3012 RMK AO2

TAF N/A
KZMP FIR / North America



MET'MAP, your aeronautical weather chart ! - Copyright ORBIFLY December 2007 - Disclaimer

ORBIFLY MET'MAP TEAM :

Programming & Development : Alexandra Zaïnal
Concept & original design : Baudouin d'Aumeries
Assistance for programming : Marc-Olivier Méhu
Technical & hardware support : Manuel Goepfert

Contact : metmap@orbifly.com




SOURCES & CREDITS :

   NOAA       Earth
Advisory